createdAt,value
2023-04-24T00:00:16.699Z,9.13
2023-04-24T00:02:47.891Z,10.43
2023-04-24T00:05:16.694Z,7.93
2023-04-24T00:07:44.351Z,10.75
2023-04-24T00:10:11.871Z,9.90
2023-04-24T00:12:38.940Z,11.40
2023-04-24T00:15:07.116Z,8.40
2023-04-24T00:17:34.062Z,11.35
2023-04-24T00:20:01.963Z,8.98
2023-04-24T00:22:29.486Z,9.02
2023-04-24T00:24:56.585Z,10.88
2023-04-24T00:27:23.947Z,9.63
2023-04-24T00:29:50.898Z,11.25
2023-04-24T00:32:19.041Z,8.20
2023-04-24T00:34:46.307Z,10.10
2023-04-24T00:37:13.298Z,8.90
2023-04-24T00:39:40.396Z,12.75
2023-04-24T00:42:07.809Z,9.38
2023-04-24T00:44:35.929Z,8.27
2023-04-24T00:47:02.962Z,10.27
2023-04-24T00:49:29.980Z,10.10
2023-04-24T00:51:57.830Z,10.60
2023-04-24T00:54:24.866Z,12.60
2023-04-24T00:56:52.381Z,9.30
2023-04-24T00:59:19.693Z,11.18
2023-04-24T01:01:47.223Z,13.40
2023-04-24T01:04:15.301Z,12.07
2023-04-24T01:06:45.220Z,11.52
2023-04-24T01:09:13.681Z,11.88
2023-04-24T01:11:42.655Z,12.77
2023-04-24T01:14:09.845Z,8.80
2023-04-24T01:16:36.909Z,12.23
2023-04-24T01:19:03.816Z,11.52
2023-04-24T01:21:31.456Z,15.65
2023-04-24T01:23:58.601Z,14.45
2023-04-24T01:26:26.614Z,13.57
2023-04-24T01:28:53.895Z,14.00
2023-04-24T01:31:21.600Z,14.20
2023-04-24T01:33:49.176Z,13.75
2023-04-24T01:36:17.914Z,13.80
2023-04-24T01:38:45.301Z,12.85
2023-04-24T01:41:12.290Z,13.70
2023-04-24T01:43:39.417Z,15.38
2023-04-24T01:46:07.001Z,16.52
2023-04-24T01:48:36.834Z,15.70
2023-04-24T01:51:03.921Z,17.80
2023-04-24T01:53:30.970Z,23.25
2023-04-24T01:55:58.399Z,15.75
2023-04-24T01:58:27.137Z,18.70
2023-04-24T02:00:54.115Z,18.92
2023-04-24T02:03:21.279Z,17.92
2023-04-24T02:05:49.592Z,21.05
2023-04-24T02:08:16.530Z,18.60
2023-04-24T02:10:43.540Z,23.33
2023-04-24T02:13:10.561Z,21.83
2023-04-24T02:15:37.518Z,21.27
2023-04-24T02:18:04.542Z,26.42
2023-04-24T02:20:35.026Z,22.70
2023-04-24T02:23:02.366Z,22.20
2023-04-24T02:25:29.305Z,26.90
2023-04-24T02:27:56.354Z,27.13
2023-04-24T02:30:23.316Z,27.42
2023-04-24T02:32:50.330Z,25.85
2023-04-24T02:35:17.493Z,31.33
2023-04-24T02:37:44.469Z,23.73
2023-04-24T02:40:12.949Z,27.95
2023-04-24T02:42:39.998Z,32.35
2023-04-24T02:45:07.513Z,30.75
2023-04-24T02:47:34.787Z,35.60
2023-04-24T02:50:03.858Z,31.15
2023-04-24T02:52:30.810Z,30.75
2023-04-24T02:54:57.739Z,27.85
2023-04-24T02:57:24.781Z,26.45
2023-04-24T02:59:51.789Z,26.50
2023-04-24T03:02:19.900Z,22.80
2023-04-24T03:04:48.866Z,27.23
2023-04-24T03:07:16.296Z,23.65
2023-04-24T03:09:44.068Z,25.02
2023-04-24T03:12:11.255Z,28.67
2023-04-24T03:14:39.978Z,27.27
2023-04-24T03:17:06.921Z,24.42
2023-04-24T03:19:33.904Z,26.88
2023-04-24T03:22:06.404Z,23.42
2023-04-24T03:24:34.996Z,24.85
2023-04-24T03:27:02.375Z,22.58
2023-04-24T03:29:52.623Z,25.42
2023-04-24T03:32:20.031Z,24.00
2023-04-24T03:34:47.886Z,28.52
2023-04-24T03:37:16.588Z,23.50
2023-04-24T03:39:49.260Z,23.83
2023-04-24T03:42:19.120Z,22.92
2023-04-24T03:44:52.055Z,24.17
2023-04-24T03:47:23.147Z,23.25
2023-04-24T03:49:51.139Z,31.55
2023-04-24T03:52:18.088Z,28.13
2023-04-24T03:54:45.034Z,28.67
2023-04-24T03:57:12.454Z,37.38
2023-04-24T03:59:47.405Z,25.98
2023-04-24T04:02:18.357Z,31.40
2023-04-24T04:04:45.865Z,28.15
2023-04-24T04:07:13.887Z,24.67
2023-04-24T04:09:41.475Z,26.55
2023-04-24T04:12:08.837Z,27.10
2023-04-24T04:14:37.393Z,28.00
2023-04-24T04:17:04.318Z,26.83
2023-04-24T04:19:31.874Z,28.17
2023-04-24T04:21:58.987Z,31.20
2023-04-24T04:24:41.684Z,30.23
2023-04-24T04:27:11.921Z,27.98
2023-04-24T04:29:47.714Z,28.02
2023-04-24T04:32:17.022Z,24.73
2023-04-24T04:34:46.266Z,25.45
2023-04-24T04:37:13.870Z,24.52
2023-04-24T04:39:47.728Z,32.88
2023-04-24T04:42:24.714Z,28.90
2023-04-24T04:44:51.935Z,26.73
2023-04-24T04:47:24.463Z,23.35
2023-04-24T04:49:52.948Z,20.27
2023-04-24T04:52:26.254Z,19.80
2023-04-24T04:54:59.411Z,20.65
2023-04-24T04:57:38.372Z,22.02
2023-04-24T05:00:08.018Z,21.35
2023-04-24T05:02:46.335Z,17.45
2023-04-24T05:05:13.686Z,11.02
2023-04-24T05:07:41.410Z,4.15
2023-04-24T05:10:09.012Z,5.13
2023-04-24T05:12:36.004Z,3.13
2023-04-24T05:15:04.921Z,2.92
2023-04-24T05:17:32.236Z,2.70
2023-04-24T05:19:59.985Z,3.08
2023-04-24T05:22:27.204Z,5.72
2023-04-24T05:24:54.354Z,3.45
2023-04-24T05:27:37.070Z,3.10
2023-04-24T05:30:10.572Z,4.20
2023-04-24T05:32:37.596Z,3.80
2023-04-24T05:35:05.171Z,2.92
2023-04-24T05:37:32.190Z,2.65
2023-04-24T05:39:59.488Z,2.58
2023-04-24T05:42:27.083Z,1.13
2023-04-24T05:44:57.439Z,1.13
2023-04-24T05:47:25.111Z,2.08
2023-04-24T05:49:54.282Z,2.10
2023-04-24T05:52:21.483Z,2.20
2023-04-24T05:54:49.680Z,2.70
2023-04-24T05:57:21.745Z,2.10
2023-04-24T05:59:53.469Z,1.48
2023-04-24T06:02:22.040Z,4.38
2023-04-24T06:04:49.476Z,4.80
2023-04-24T06:07:18.391Z,3.30
2023-04-24T06:09:45.837Z,1.35
2023-04-24T06:12:12.810Z,2.97
2023-04-24T06:14:51.572Z,4.07
2023-04-24T06:17:23.171Z,2.55
2023-04-24T06:19:50.856Z,2.15
2023-04-24T06:22:18.580Z,2.00
2023-04-24T06:24:45.562Z,2.35
2023-04-24T06:27:13.961Z,2.55
2023-04-24T06:29:41.910Z,3.30
2023-04-24T06:32:09.041Z,2.00
2023-04-24T06:34:36.593Z,1.30
2023-04-24T06:37:03.581Z,2.00
2023-04-24T06:39:30.535Z,1.60
2023-04-24T06:41:57.435Z,1.05
2023-04-24T06:44:24.807Z,3.05
2023-04-24T06:46:51.805Z,0.90
2023-04-24T06:49:18.711Z,1.77
2023-04-24T06:51:46.255Z,1.98
2023-04-24T06:54:13.996Z,2.28
2023-04-24T06:56:41.001Z,2.45
2023-04-24T06:59:07.945Z,2.80
2023-04-24T07:01:35.109Z,1.63
2023-04-24T07:04:02.820Z,3.42
2023-04-24T07:06:32.743Z,4.40
2023-04-24T07:09:01.305Z,2.25
2023-04-24T07:11:30.305Z,1.17
2023-04-24T07:13:57.280Z,3.13
2023-04-24T07:16:24.322Z,2.00
2023-04-24T07:18:51.463Z,7.30
2023-04-24T07:21:18.892Z,1.70
2023-04-24T07:23:45.844Z,3.38
2023-04-24T07:26:13.374Z,2.38
2023-04-24T07:28:40.592Z,0.88
2023-04-24T07:31:08.043Z,2.47
2023-04-24T07:33:35.197Z,2.78
2023-04-24T07:36:02.277Z,2.63
2023-04-24T07:38:31.332Z,4.25
2023-04-24T07:40:58.618Z,1.80
2023-04-24T07:43:25.737Z,2.45
2023-04-24T07:45:52.721Z,2.47
2023-04-24T07:48:19.680Z,1.20
2023-04-24T07:50:46.622Z,0.50
2023-04-24T07:53:13.550Z,0.30
2023-04-24T07:55:40.672Z,0.40
2023-04-24T07:58:07.852Z,0.30
2023-04-24T08:00:34.858Z,0.50
2023-04-24T08:03:02.285Z,0.45
2023-04-24T08:05:29.809Z,2.65
2023-04-24T08:07:57.094Z,3.50
2023-04-24T08:10:24.533Z,1.08
2023-04-24T08:12:51.476Z,1.58
2023-04-24T08:15:18.975Z,3.90
2023-04-24T08:17:45.947Z,3.05
2023-04-24T08:20:16.500Z,3.97
2023-04-24T08:22:44.424Z,2.00
2023-04-24T08:25:12.652Z,0.63
2023-04-24T08:27:40.050Z,0.50
2023-04-24T08:30:08.273Z,1.05
2023-04-24T08:32:35.422Z,0.73
2023-04-24T08:35:02.462Z,0.50
2023-04-24T08:37:29.633Z,1.15
2023-04-24T08:39:56.702Z,0.93
2023-04-24T08:42:23.717Z,3.20
2023-04-24T08:44:51.322Z,1.45
2023-04-24T08:47:20.458Z,1.35
2023-04-24T08:49:50.030Z,0.90
2023-04-24T08:52:17.447Z,1.02
2023-04-24T08:54:46.537Z,1.20
2023-04-24T08:57:15.269Z,1.70
2023-04-24T08:59:43.181Z,1.50
2023-04-24T09:02:12.719Z,3.33
2023-04-24T09:04:41.867Z,0.57
2023-04-24T09:07:11.336Z,1.48
2023-04-24T09:09:40.176Z,5.25
2023-04-24T09:12:07.560Z,2.83
2023-04-24T09:14:34.648Z,3.13
2023-04-24T09:17:02.029Z,1.83
2023-04-24T09:19:29.173Z,1.25
2023-04-24T09:21:56.357Z,0.80
2023-04-24T09:24:23.791Z,1.75
2023-04-24T09:27:00.142Z,2.72
2023-04-24T09:29:27.232Z,2.63
2023-04-24T09:31:54.371Z,2.85
2023-04-24T09:34:28.405Z,0.57
2023-04-24T09:36:56.117Z,0.60
2023-04-24T09:39:23.116Z,0.57
2023-04-24T09:41:56.670Z,1.13
2023-04-24T09:44:27.093Z,1.92
2023-04-24T17:53:57.137Z,10.07
2023-04-24T17:56:25.069Z,12.43
2023-04-24T17:58:52.543Z,10.23
2023-04-24T18:01:19.577Z,9.00
2023-04-24T18:03:46.741Z,11.00
2023-04-24T18:06:17.330Z,8.00
2023-04-24T18:08:44.433Z,8.65
2023-04-24T18:11:11.476Z,10.45
2023-04-24T18:13:41.222Z,11.55
2023-04-24T18:16:08.259Z,10.90
2023-04-24T18:18:35.276Z,7.00
2023-04-24T18:21:02.619Z,11.13
2023-04-24T18:23:29.956Z,9.13
2023-04-24T18:25:56.922Z,13.65
2023-04-24T18:28:23.847Z,12.27
2023-04-24T18:30:50.752Z,9.55
2023-04-24T18:33:19.027Z,9.43
2023-04-24T18:35:46.035Z,9.75
2023-04-24T18:38:13.031Z,13.10
2023-04-24T18:40:39.941Z,13.25
2023-04-24T18:43:07.202Z,12.30
2023-04-24T18:45:34.163Z,11.50
2023-04-24T18:48:01.202Z,9.35
2023-04-24T18:50:29.884Z,9.50
2023-04-24T18:52:56.855Z,11.90
2023-04-24T18:55:46.490Z,11.50
2023-04-24T18:58:13.596Z,12.30
2023-04-24T19:00:40.688Z,9.07
2023-04-24T19:03:08.774Z,10.70
2023-04-24T19:05:38.688Z,9.15
2023-04-24T19:08:05.771Z,11.48
2023-04-24T19:10:34.381Z,17.25
2023-04-24T19:13:01.963Z,15.40
2023-04-24T19:15:29.942Z,11.15
2023-04-24T19:17:57.134Z,9.27
2023-04-24T19:20:25.276Z,10.15
2023-04-24T19:22:52.327Z,13.55
2023-04-24T19:25:19.919Z,11.80
2023-04-24T19:27:47.046Z,16.45
2023-04-24T19:30:14.238Z,14.05
2023-04-24T19:32:41.250Z,10.57
2023-04-24T19:35:08.645Z,12.10
2023-04-24T19:37:36.683Z,12.23
2023-04-24T19:40:04.416Z,10.55
2023-04-24T19:42:42.721Z,11.27
2023-04-24T19:45:12.465Z,13.82
2023-04-24T19:47:40.241Z,12.15
2023-04-24T19:50:08.066Z,12.15
2023-04-24T19:52:35.244Z,4.70
2023-04-24T19:55:02.510Z,5.72
2023-04-24T19:57:29.666Z,5.03
2023-04-24T19:59:56.728Z,4.60
2023-04-24T20:02:24.047Z,5.57
2023-04-24T20:04:51.598Z,4.70
2023-04-24T20:07:18.967Z,6.90
2023-04-24T20:09:46.189Z,8.88
2023-04-24T20:12:13.268Z,9.45
2023-04-24T20:14:40.542Z,9.82
2023-04-24T20:17:08.010Z,9.82
2023-04-24T20:19:35.238Z,14.18
2023-04-24T20:22:02.513Z,10.00
2023-04-24T20:24:29.535Z,10.15
2023-04-24T20:26:57.188Z,8.35
2023-04-24T20:29:24.281Z,8.95
2023-04-24T20:31:51.378Z,8.77
2023-04-24T20:34:18.783Z,7.95
2023-04-24T20:36:49.401Z,9.00
2023-04-24T20:39:16.968Z,5.97
2023-04-24T20:41:46.582Z,7.03
2023-04-24T20:44:14.077Z,5.47
2023-04-24T20:46:41.228Z,7.20
2023-04-24T20:49:08.399Z,9.27
2023-04-24T20:51:35.410Z,9.55
2023-04-24T20:54:02.522Z,10.85
2023-04-24T20:56:29.793Z,11.02
2023-04-24T20:58:57.364Z,11.48
2023-04-24T21:01:24.524Z,10.00
2023-04-24T21:03:52.751Z,8.77
2023-04-24T21:06:20.500Z,10.35
2023-04-24T21:08:47.839Z,10.43
2023-04-24T21:11:14.990Z,8.50
2023-04-24T21:13:41.932Z,7.97
2023-04-24T21:16:09.032Z,6.15
2023-04-24T21:18:40.992Z,9.05
2023-04-24T21:21:09.539Z,12.20
2023-04-24T21:23:36.695Z,11.02
2023-04-24T21:26:04.408Z,13.25
2023-04-24T21:28:31.643Z,9.05
2023-04-24T21:30:58.812Z,8.55
2023-04-24T21:33:26.141Z,11.82
2023-04-24T21:35:53.153Z,8.82
2023-04-24T21:38:23.196Z,12.32
2023-04-24T21:40:50.846Z,7.35
2023-04-24T21:43:18.737Z,11.75
2023-04-24T21:45:46.069Z,11.43
2023-04-24T21:48:13.248Z,10.23
2023-04-24T21:50:40.254Z,8.13
2023-04-24T21:53:07.246Z,8.98
2023-04-24T21:55:34.285Z,8.80
2023-04-24T21:58:02.455Z,9.55
2023-04-24T22:00:29.393Z,10.82
2023-04-24T22:02:56.453Z,12.02
2023-04-24T22:05:23.794Z,11.10
2023-04-24T22:07:51.103Z,13.02
2023-04-24T22:10:18.163Z,10.43
2023-04-24T22:12:45.191Z,13.20
2023-04-24T22:15:12.199Z,11.50
2023-04-24T22:17:39.757Z,13.00
2023-04-24T22:20:07.557Z,14.00
2023-04-24T22:22:37.428Z,11.30
2023-04-24T22:25:04.974Z,13.02
2023-04-24T22:27:32.948Z,13.20
2023-04-24T22:30:01.261Z,9.98
2023-04-24T22:32:31.107Z,11.68
2023-04-24T22:34:58.194Z,12.10
2023-04-24T22:37:25.402Z,11.70
2023-04-24T22:39:52.409Z,11.45
2023-04-24T22:42:19.381Z,12.35
2023-04-24T22:44:46.435Z,15.68
2023-04-24T22:47:13.407Z,15.15
2023-04-24T22:49:41.869Z,11.25
2023-04-24T22:52:08.917Z,12.60
2023-04-24T22:54:35.916Z,12.00
2023-04-24T22:57:04.055Z,9.13
2023-04-24T22:59:31.210Z,8.23
2023-04-24T23:01:59.355Z,9.77
2023-04-24T23:04:26.589Z,10.25
2023-04-24T23:06:54.076Z,9.32
2023-04-24T23:09:21.223Z,8.77
2023-04-24T23:11:48.181Z,8.70
2023-04-24T23:14:16.804Z,7.05
2023-04-24T23:16:45.322Z,6.78
2023-04-24T23:19:12.272Z,7.13
2023-04-24T23:21:39.310Z,7.10
2023-04-24T23:24:06.535Z,6.70
2023-04-24T23:26:33.593Z,8.13
2023-04-24T23:29:00.569Z,11.57
2023-04-24T23:31:27.542Z,5.10
2023-04-24T23:33:54.507Z,6.40
2023-04-24T23:36:21.453Z,6.70
2023-04-24T23:38:50.619Z,6.78
2023-04-24T23:41:19.578Z,11.18
2023-04-24T23:43:46.536Z,8.23
2023-04-24T23:46:13.517Z,6.78
2023-04-24T23:48:40.461Z,9.30
2023-04-24T23:51:07.411Z,8.40
2023-04-24T23:53:34.600Z,10.45
2023-04-24T23:56:01.564Z,10.00
2023-04-24T23:58:28.490Z,8.27
